logo
App data

Codename: Panzers - Cold War

Tempelhof, Berlin, dawn of 8th April 1949.A major armed conflict is brewing between the Western powers and the Soviet bloc. The Red Army has been growing ever stronger since the end of World War II. With the growth of their army the Soviets realize that they hold the advantage, and are only waiting for the right moment to attack.
Store | Hub | SteamDB | Site
Developer: InnoGlow, Stormregion, THQ Nordic Publisher: THQ Nordic
Genre: Simulation, Strategy
Languages: English, French, German, Spanish - Spain, Italian
Tags: Strategy (33), RTS (23), Simulation (21), War (14), Singleplayer (13), Multiplayer (12), Cold War (11), Tactical (11), Cult Classic (11), Atmospheric (10), Great Soundtrack (10), Classic (9)
Category: Single-player, Multi-player, Co-op
Release date: Mar 10, 2009
Price: $14.99
Old userscore: 59% Owners: 20,000 .. 50,000
Followers: 1,230
Peak concurrent players yesterday: 6
YouTube stats: 60 views and 5 comments for top 50 videos uploaded last week, 0 new videos uploaded yesterday.

Steam Spy is still in beta, so expect major bugs.

Owners data:

Access restricted.

This feature is only available to users with special access rights. Sorry.

If you want to proceed, you need to register or log in first and then back Steam Spy on Patreon. Look for Indie or Pro pledge.

Don't forget to use the same email as on Steam Spy!

Audience in 2 weeks:

Access restricted.

This feature is only available to users with special access rights. Sorry.

If you want to proceed, you need to register or log in first and then back Steam Spy on Patreon. Look for Indie or Pro pledge.

Don't forget to use the same email as on Steam Spy!

Peak daily concurrent players:

CCU data courtesy of SteamDB. Used with permission.

Hourly concurrent players:

Followers over time

Access restricted.

This feature is only available to users with special access rights. Sorry.

If you want to proceed, you need to register or log in first and then back Steam Spy on Patreon. Look for Indie or Pro pledge.

Don't forget to use the same email as on Steam Spy!

Views for top 50 videos on YouTube for this game:

Games similar to this one:

# Game Release date
Price
Score rank
(Userscore / Metascore)
Owners
Players
Playtime (Median)
1 Praetorians Mar 10, 2003 $4.99N/A (N/A/78%)100,000 .. 200,0000%00:00 (00:00)
2 UFO: Afterlight Feb 8, 2007 $6.99N/A (N/A/71%)200,000 .. 500,0000%00:00 (00:00)
3 ORB Nov 8, 2002 $4.99N/A (N/A)20,000 .. 50,0000%00:00 (00:00)
4 Skyward Collapse May 23, 2013 $1.24N/A (N/A/64%)100,000 .. 200,0000%00:00 (00:00)
5 Cubemen Mar 16, 2012 $3.99N/A (N/A/74%)100,000 .. 200,0000%00:00 (00:00)
6 Earth 2140 Nov 15, 2013 $1.99N/A (N/A)200,000 .. 500,0000%00:00 (00:00)
7 Viking: Battle for Asgard Oct 17, 2012 $14.99N/A (N/A)1,000,000 .. 2,000,0000%00:00 (00:00)
8 Ground Control Anthology Jul 8, 2015 $4.99N/A (N/A/86%)20,000 .. 50,0000%00:00 (00:00)
9 Conflict Desert Storm Sep 13, 2002 $0.97N/A (N/A/56%)50,000 .. 100,0000%00:00 (00:00)
10 Ground Control II: Operation Exodus Jul 8, 2015 $4.99N/A (N/A/80%)20,000 .. 50,0000%00:00 (00:00)
11 Galactic Civilizations I: Ultimate Edition Aug 14, 2012 $9.99N/A (N/A/83%)100,000 .. 200,0000%00:00 (00:00)
12 MoonBase Commander Aug 13, 2002 $5.99N/A (N/A/77%)20,000 .. 50,0000%00:00 (00:00)
13 Tiny Troopers Aug 24, 2012 $4.99N/A (N/A/57%)100,000 .. 200,0000%00:00 (00:00)
14 Silent Storm Gold Edition Sep 9, 2004 $9.99N/A (N/A/83%)200,000 .. 500,0000%00:00 (00:00)
15 Sang-Froid - Tales of Werewolves Apr 5, 2013 FreeN/A (N/A/79%)200,000 .. 500,0000%00:00 (00:00)
16 Desperados: Wanted Dead or Alive Jul 23, 2001 $4.99N/A (N/A/78%)100,000 .. 200,0000%00:00 (00:00)
17 Eador: Genesis Aug 7, 2009 $5.99N/A (N/A)50,000 .. 100,0000%00:00 (00:00)
18 Neocolonialism Nov 25, 2014 $2.99N/A (N/A)0 .. 20,0000%00:00 (00:00)
19 The Nightmare Cooperative Jul 16, 2014 $4.99N/A (N/A)50,000 .. 100,0000%00:00 (00:00)
20 Seven Kingdoms 2 HD Feb 4, 2015 $9.99N/A (N/A)50,000 .. 100,0000%00:00 (00:00)
21 Legions of Ashworld Jul 4, 2014 $4.99N/A (N/A)0 .. 20,0000%00:00 (00:00)
22 Battle Academy Aug 4, 2010 $1.49N/A (N/A)20,000 .. 50,0000%00:00 (00:00)
23 Tiestru Aug 20, 2014 $9.99N/A (N/A)0 .. 20,0000%00:00 (00:00)
24 UFO: Aftershock Oct 21, 2005 $3.99N/A (N/A)50,000 .. 100,0000%00:00 (00:00)
25 Hunters Of The Dead Sep 4, 2014 $4.99N/A (N/A)0 .. 20,0000%00:00 (00:00)
26 Evolution RTS Apr 4, 2014 FreeN/A (N/A)100,000 .. 200,0000%00:00 (00:00)
27 Reprisal Universe Sep 15, 2014 $6.99N/A (N/A)20,000 .. 50,0000%00:00 (00:00)
28 Haegemonia: The Solon Heritage May 1, 2014 $4.99N/A (N/A)20,000 .. 50,0000%00:00 (00:00)
29 Gods vs Humans Sep 5, 2013 $4.99N/A (N/A)20,000 .. 50,0000%00:00 (00:00)
30 Rooks Keep Dec 5, 2014 $7.99N/A (N/A)0 .. 20,0000%00:00 (00:00)
31 Fallen: A2P Protocol Aug 14, 2015 $9.99N/A (N/A)20,000 .. 50,0000%00:00 (00:00)
32 Rush for Glory Jun 16, 2014 $14.99N/A (N/A)20,000 .. 50,0000%00:00 (00:00)
33 Survivor Squad: Gauntlets Nov 16, 2015 $4.99N/A (N/A)20,000 .. 50,0000%00:00 (00:00)
34 War in a Box: Paper Tanks Jul 4, 2014 $4.99N/A (N/A)50,000 .. 100,0000%00:00 (00:00)
35 X-COM: Enforcer Apr 19, 2001 $4.99N/A (N/A/65%)100,000 .. 200,0000%00:00 (00:00)
36 Cossacks: European Wars Apr 24, 2001 $4.99N/A (N/A/74%)100,000 .. 200,0000%00:00 (00:00)
37 Warhammer 40,000: Dawn of War – Winter Assault Jan 1, 2006 $12.99N/A (N/A)500,000 .. 1,000,0000%00:00 (00:00)
38 Vegas: Make It Big Dec 21, 2006 $4.99N/A (N/A)20,000 .. 50,0000%00:00 (00:00)
39 Darwinia Jul 14, 2005 $9.99N/A (N/A/84%)500,000 .. 1,000,0000%00:00 (00:00)
40 Joint Task Force Sep 12, 2006 $7.99N/A (N/A/68%)20,000 .. 50,0000%00:00 (00:00)
41 ThreadSpace: Hyperbol Jul 12, 2007 $4.99N/A (N/A)0 .. 20,0000%00:00 (00:00)
42 Commandos: Beyond the Call of Duty Mar 15, 2007 $4.99N/A (N/A)500,000 .. 1,000,0000%00:00 (00:00)
43 Men of War: Red Tide Nov 1, 2009 $4.99N/A (N/A/77%)200,000 .. 500,0000%00:00 (00:00)
44 Battlestations: Midway Mar 15, 2007 $0.97N/A (N/A/76%)200,000 .. 500,0000%00:00 (00:00)
45 Civilization IV: Warlords Apr 6, 2007 $4.99N/A (N/A/84%)1,000,000 .. 2,000,0000%00:00 (00:00)
46 Two Worlds II Castle Defense Jun 14, 2011 $3.99N/A (N/A)100,000 .. 200,0000%00:00 (00:00)
47 Full Spectrum Warrior: Ten Hammers Jul 17, 2007 $9.99N/A (N/A/70%)100,000 .. 200,0000%00:00 (00:00)
48 X-COM: Apocalypse Jul 15, 1997 $4.99N/A (N/A)500,000 .. 1,000,0000%00:00 (00:00)
49 Rome: Total War - Alexander Aug 28, 2007 $12.99N/A (N/A/79%)500,000 .. 1,000,0000%00:00 (00:00)
50 X-COM: Interceptor Jun 15, 1998 $4.99N/A (N/A)50,000 .. 100,0000%00:00 (00:00)
51 Cossacks: Art of War Mar 31, 2002 $4.99N/A (N/A)20,000 .. 50,0000%00:00 (00:00)
52 Pang Adventures Apr 18, 2016 $9.99N/A (N/A)20,000 .. 50,0000%00:00 (00:00)
53 Cluck Yegger in Escape From The Planet of The Poultroid Nov 9, 2015 $2.99N/A (N/A)0 .. 20,0000%00:00 (00:00)
54 SHOGUN: Total War - Collection Jun 13, 2000 $9.99N/A (N/A)50,000 .. 100,0000%00:00 (00:00)
55 Legends of Callasia Jun 10, 2016 FreeN/A (N/A)50,000 .. 100,0000%00:00 (00:00)
56 UFHO2 Jun 2, 2015 FreeN/A (N/A)20,000 .. 50,0000%00:00 (00:00)
57 Crown and Council Apr 22, 2016 FreeN/A (N/A)100,000 .. 200,0000%00:00 (00:00)
58 World War I Jun 17, 2005 $4.99N/A (N/A)20,000 .. 50,0000%00:00 (00:00)
59 Cthulhu Realms Jul 1, 2016 FreeN/A (N/A)50,000 .. 100,0000%00:00 (00:00)
60 Rise: Battle Lines Nov 17, 2015 N/AN/A (N/A)0 .. 20,0000%00:00 (00:00)
61 Quarantine May 24, 2017 $9.99N/A (N/A)0 .. 20,0000%00:00 (00:00)
62 WARSHIFT Oct 12, 2016 $9.99N/A (N/A)20,000 .. 50,0000%00:00 (00:00)
63 ROD: Revolt Of Defense Aug 12, 2016 $0.99N/A (N/A)20,000 .. 50,0000%00:00 (00:00)
64 Master of Orion 3 Aug 25, 2016 $9.99N/A (N/A/64%)50,000 .. 100,0000%00:00 (00:00)
65 Honey Rose: Underdog Fighter Extraordinaire Sep 29, 2016 FreeN/A (N/A)0 .. 20,0000%00:00 (00:00)
66 Codename: Panzers, Phase Two Jul 21, 2005 $14.99N/A (N/A/80%)0 .. 20,0000%00:00 (00:00)
67 9th Company: Roots Of Terror Dec 3, 2009 $9.99N/A (N/A)20,000 .. 50,0000%00:00 (00:00)
68 Rush for Berlin Gold Oct 29, 2009 $4.99N/A (N/A/76%)20,000 .. 50,0000%00:00 (00:00)
69 Heroes of Might & Magic V: Hammers of Fate Nov 14, 2006 $2.49N/A (N/A/66%)20,000 .. 50,0000%00:00 (00:00)
70 Company of Heroes: Opposing Fronts Sep 27, 2007 $19.99N/A (N/A/87%)2,000,000 .. 5,000,0000%00:00 (00:00)
71 Red Faction II Apr 9, 2003 $9.99N/A (N/A/64%)200,000 .. 500,0000%00:00 (00:00)
72 Supreme Commander Feb 20, 2007 $2.59N/A (N/A/86%)1,000,000 .. 2,000,0000%00:00 (00:00)
73 Imperium Romanum Gold Edition Oct 30, 2008 $9.99N/A (N/A/63%)100,000 .. 200,0000%00:00 (00:00)
74 Desperados 2: Cooper's Revenge May 2, 2006 $9.99N/A (N/A/66%)20,000 .. 50,0000%00:00 (00:00)
75 Grand Ages: Rome Mar 20, 2009 $9.99N/A (N/A/72%)200,000 .. 500,0000%00:00 (00:00)
76 Space Trader: Merchant Marine Oct 23, 2008 $4.99N/A (N/A)100,000 .. 200,0000%00:00 (00:00)
77 Patrician III Nov 18, 2010 $4.99N/A (N/A/75%)100,000 .. 200,0000%00:00 (00:00)
78 Maelstrom: The Battle for Earth Begins Feb 20, 2007 $4.99N/A (N/A/58%)20,000 .. 50,0000%00:00 (00:00)
79 XIII Century – Gold Edition Aug 28, 2009 $4.99N/A (N/A)50,000 .. 100,0000%00:00 (00:00)
80 BC Kings Sep 15, 2008 $4.99N/A (N/A)20,000 .. 50,0000%00:00 (00:00)
81 Dwarfs!? May 4, 2011 $9.99N/A (N/A)200,000 .. 500,0000%00:00 (00:00)
82 Port Royale 2 Apr 30, 2004 $4.99N/A (N/A/75%)50,000 .. 100,0000%00:00 (00:00)
83 The Guild Gold Edition Nov 18, 2002 $9.99N/A (N/A/82%)100,000 .. 200,0000%00:00 (00:00)
84 Theatre of War 3: Korea Mar 24, 2011 $6.99N/A (N/A/49%)50,000 .. 100,0000%00:00 (00:00)
85 Gratuitous Tank Battles May 17, 2012 $9.99N/A (N/A/69%)50,000 .. 100,0000%00:00 (00:00)
86 APOX Jan 20, 2011 $14.99N/A (N/A/48%)20,000 .. 50,0000%00:00 (00:00)
87 Sacraboar Nov 6, 2009 $2.99N/A (N/A)20,000 .. 50,0000%00:00 (00:00)
88 Guardians of Graxia Nov 1, 2010 N/AN/A (N/A)50,000 .. 100,0000%00:00 (00:00)
89 Robin Hood: The Legend of Sherwood Nov 1, 2002 $7.99N/A (N/A/80%)100,000 .. 200,0000%00:00 (00:00)
90 Hydrophobia: Prophecy May 9, 2011 $4.99N/A (N/A/64%)200,000 .. 500,0000%00:00 (00:00)
91 Dungeons Feb 10, 2011 $9.99N/A (N/A/65%)200,000 .. 500,0000%00:00 (00:00)
92 Achron Aug 29, 2011 $19.99N/A (N/A/54%)20,000 .. 50,0000%00:00 (00:00)
93 Age of Wonders Oct 2010 $5.99N/A (N/A)100,000 .. 200,0000%00:00 (00:00)
94 Cossacks II: Napoleonic Wars Apr 26, 2005 $4.99N/A (N/A/73%)50,000 .. 100,0000%00:00 (00:00)
95 Age of Wonders II: The Wizard's Throne Oct 2010 $2.49N/A (N/A/86%)50,000 .. 100,0000%00:00 (00:00)
96 Dungeons - The Dark Lord Sep 27, 2011 $19.99N/A (N/A/72%)100,000 .. 200,0000%00:00 (00:00)
97 Swords and Soldiers HD Dec 2, 2010 $9.99N/A (N/A)200,000 .. 500,0000%00:00 (00:00)
98 Disciples III - Resurrection Oct 11, 2011 $14.99N/A (N/A/63%)100,000 .. 200,0000%00:00 (00:00)
99 Fantasy Wars Aug 6, 2010 $4.99N/A (N/A/67%)50,000 .. 100,0000%00:00 (00:00)
100 Men of War: Condemned Heroes Apr 12, 2012 $7.99N/A (N/A/57%)100,000 .. 200,0000%00:00 (00:00)

Tags over time:

Access restricted.

This feature is only available to users with special access rights. Sorry.

If you want to proceed, you need to register or log in first and then back Steam Spy on Patreon. Look for Indie or Pro pledge.

Don't forget to use the same email as on Steam Spy!

Owners of this game also own:

Access restricted.

This feature is only available to users with special access rights. Sorry.

If you want to proceed, you need to register or log in first and then back Steam Spy on Patreon. Look for Indie or Pro pledge.

Don't forget to use the same email as on Steam Spy!

Playtime distribution:

Access restricted.

This feature is only available to users with special access rights. Sorry.

If you want to proceed, you need to register or log in first and then back Steam Spy on Patreon. Look for Indie or Pro pledge.

Don't forget to use the same email as on Steam Spy!

Playtime (2 weeks):

Access restricted.

This feature is only available to users with special access rights. Sorry.

If you want to proceed, you need to register or log in first and then back Steam Spy on Patreon. Look for Indie or Pro pledge.

Don't forget to use the same email as on Steam Spy!

User reviews:

Login required.

Please register or log in to see this information.